RYR6DB EGSS-LIPZ
Flight info
| Callsign | RYR6DB |
|---|---|
| Flight time | N/A |
| Altitude | 33000 |
| Route | CLN M84 KONAN UL607 KOK/N0441F390 UL607 REMBA DCT LIRSU DCT KRH DCT BATUB M738 ADOSA L612 ALBET |
| Aircraft | B38M/M-SADE3FGIJ1LRWY/SB1 |
Departure
| Time | N/A |
|---|---|
| Airport | London Stansted Airport (EGSS) |
Arrival
| Time | 2026-04-30 19:00 |
|---|---|
| Airport | Venice Marco Polo Airport (LIPZ) |
| Time | Latitude | Longitude | Altitude | Speed | Heading |
|---|---|---|---|---|---|
| 2026-04-30 17:39 | 50.96111 | 3.37980 | 34848 ft | 427 kts | 106° |
| 2026-04-30 17:41 | 50.89271 | 3.74043 | 36643 ft | 428 kts | 107° |
| 2026-04-30 17:42 | 50.87536 | 3.83023 | 37162 ft | 424 kts | 107° |
| 2026-04-30 17:43 | 50.83162 | 4.05489 | 37247 ft | 428 kts | 107° |
| 2026-04-30 17:44 | 50.77863 | 4.32339 | 37256 ft | 427 kts | 107° |
| 2026-04-30 17:47 | 50.69889 | 4.72664 | 37256 ft | 428 kts | 106° |
| 2026-04-30 17:48 | 50.62646 | 5.03316 | 37262 ft | 428 kts | 114° |
| 2026-04-30 17:50 | 50.52417 | 5.37096 | 37265 ft | 428 kts | 114° |
| 2026-04-30 17:52 | 50.42999 | 5.60863 | 37277 ft | 431 kts | 123° |
| 2026-04-30 17:54 | 50.27253 | 5.95104 | 37264 ft | 430 kts | 123° |
| 2026-04-30 17:56 | 50.13185 | 6.25367 | 37282 ft | 431 kts | 123° |
| 2026-04-30 17:58 | 50.03149 | 6.46749 | 37282 ft | 431 kts | 123° |
| 2026-04-30 18:00 | 49.88905 | 6.76799 | 37284 ft | 434 kts | 123° |
| 2026-04-30 18:01 | 49.79889 | 6.95646 | 37288 ft | 436 kts | 123° |
| 2026-04-30 18:02 | 49.68994 | 7.18242 | 37305 ft | 438 kts | 123° |
| 2026-04-30 18:04 | 49.58024 | 7.40801 | 37292 ft | 439 kts | 123° |
| 2026-04-30 18:06 | 49.43288 | 7.70806 | 37271 ft | 440 kts | 123° |
| 2026-04-30 18:08 | 49.30337 | 7.96900 | 37285 ft | 441 kts | 123° |
| 2026-04-30 18:10 | 49.15363 | 8.26753 | 37292 ft | 443 kts | 122° |
| 2026-04-30 18:11 | 49.02158 | 8.52808 | 37286 ft | 444 kts | 122° |
| 2026-04-30 18:12 | 48.95322 | 8.62429 | 37292 ft | 457 kts | 140° |
| 2026-04-30 18:13 | 48.90075 | 8.67892 | 37300 ft | 458 kts | 141° |
| 2026-04-30 18:14 | 48.76859 | 8.81407 | 37294 ft | 458 kts | 141° |
| 2026-04-30 18:15 | 48.60946 | 8.97555 | 37288 ft | 460 kts | 141° |
| 2026-04-30 18:16 | 48.50296 | 9.08293 | 37293 ft | 461 kts | 141° |
| 2026-04-30 18:17 | 48.44963 | 9.13650 | 37291 ft | 461 kts | 141° |
| 2026-04-30 18:18 | 48.36975 | 9.21648 | 37293 ft | 462 kts | 141° |
| 2026-04-30 18:18 | 48.31614 | 9.26998 | 37289 ft | 462 kts | 141° |
| 2026-04-30 18:19 | 48.26245 | 9.32342 | 37296 ft | 464 kts | 141° |
| 2026-04-30 18:19 | 48.20864 | 9.37685 | 37297 ft | 464 kts | 141° |
| 2026-04-30 18:20 | 48.15469 | 9.43028 | 37278 ft | 465 kts | 141° |
| 2026-04-30 18:20 | 48.10073 | 9.48360 | 37273 ft | 465 kts | 141° |
| 2026-04-30 18:21 | 48.04666 | 9.53690 | 37276 ft | 465 kts | 141° |
| 2026-04-30 18:21 | 47.99387 | 9.59246 | 37274 ft | 464 kts | 137° |
| 2026-04-30 18:22 | 47.94157 | 9.64917 | 37276 ft | 466 kts | 138° |
| 2026-04-30 18:22 | 47.86264 | 9.73409 | 37269 ft | 467 kts | 138° |
| 2026-04-30 18:23 | 47.80999 | 9.79054 | 37258 ft | 466 kts | 138° |
| 2026-04-30 18:23 | 47.75734 | 9.84686 | 37249 ft | 466 kts | 138° |
| 2026-04-30 18:24 | 47.67835 | 9.93109 | 37252 ft | 466 kts | 138° |
| 2026-04-30 18:25 | 47.62563 | 9.98712 | 37260 ft | 467 kts | 138° |
| 2026-04-30 18:25 | 47.54638 | 10.07110 | 37246 ft | 468 kts | 139° |
| 2026-04-30 18:26 | 47.46684 | 10.15504 | 37250 ft | 469 kts | 139° |
| 2026-04-30 18:27 | 47.38456 | 10.23337 | 37263 ft | 473 kts | 142° |
| 2026-04-30 18:28 | 47.30022 | 10.31065 | 37295 ft | 475 kts | 143° |
| 2026-04-30 18:28 | 47.21604 | 10.38642 | 37270 ft | 476 kts | 144° |
| 2026-04-30 18:29 | 47.10285 | 10.48790 | 37272 ft | 477 kts | 144° |
| 2026-04-30 18:30 | 47.05491 | 10.52837 | 37222 ft | 482 kts | 155° |
| 2026-04-30 18:30 | 46.97987 | 10.56351 | 37192 ft | 486 kts | 160° |
| 2026-04-30 18:31 | 46.88290 | 10.60753 | 37231 ft | 487 kts | 160° |
| 2026-04-30 18:32 | 46.81903 | 10.63629 | 37271 ft | 472 kts | 160° |
| 2026-04-30 18:32 | 46.78784 | 10.65032 | 37233 ft | 467 kts | 160° |
| 2026-04-30 18:33 | 46.69425 | 10.68751 | 37279 ft | 465 kts | 166° |
| 2026-04-30 18:33 | 46.59930 | 10.71836 | 37257 ft | 466 kts | 165° |
| 2026-04-30 18:34 | 46.56765 | 10.72880 | 37092 ft | 466 kts | 166° |
| 2026-04-30 18:34 | 46.50335 | 10.75003 | 35147 ft | 483 kts | 165° |
| 2026-04-30 18:34 | 46.47026 | 10.76093 | 34135 ft | 492 kts | 164° |
| 2026-04-30 18:35 | 46.43663 | 10.77198 | 33099 ft | 499 kts | 164° |
| 2026-04-30 18:35 | 46.40260 | 10.78315 | 32072 ft | 505 kts | 163° |
| 2026-04-30 18:35 | 46.36822 | 10.79442 | 31071 ft | 509 kts | 163° |
| 2026-04-30 18:36 | 46.29986 | 10.81678 | 29755 ft | 497 kts | 162° |
| 2026-04-30 18:36 | 46.26648 | 10.82767 | 29154 ft | 485 kts | 162° |
| 2026-04-30 18:36 | 46.20186 | 10.84863 | 27402 ft | 468 kts | 163° |
| 2026-04-30 18:37 | 46.17074 | 10.85864 | 26531 ft | 461 kts | 163° |
| 2026-04-30 18:37 | 46.13975 | 10.86861 | 25692 ft | 453 kts | 163° |
| 2026-04-30 18:37 | 46.10919 | 10.87842 | 24862 ft | 446 kts | 163° |
| 2026-04-30 18:37 | 46.07922 | 10.88803 | 24205 ft | 436 kts | 164° |
| 2026-04-30 18:38 | 46.05018 | 10.89734 | 23831 ft | 419 kts | 164° |
| 2026-04-30 18:38 | 46.02223 | 10.90628 | 23446 ft | 405 kts | 164° |
| 2026-04-30 18:38 | 45.99515 | 10.91494 | 23043 ft | 392 kts | 164° |
| 2026-04-30 18:38 | 45.96892 | 10.92332 | 22662 ft | 380 kts | 165° |
| 2026-04-30 18:39 | 45.94353 | 10.93143 | 22291 ft | 369 kts | 165° |
| 2026-04-30 18:39 | 45.91879 | 10.93933 | 21909 ft | 358 kts | 165° |
| 2026-04-30 18:39 | 45.89457 | 10.94705 | 21570 ft | 355 kts | 165° |
| 2026-04-30 18:39 | 45.87058 | 10.95469 | 21209 ft | 352 kts | 165° |
| 2026-04-30 18:40 | 45.84682 | 10.96224 | 20839 ft | 347 kts | 165° |
| 2026-04-30 18:40 | 45.82339 | 10.96968 | 20575 ft | 343 kts | 165° |
| 2026-04-30 18:40 | 45.80006 | 10.97710 | 20159 ft | 344 kts | 165° |
| 2026-04-30 18:40 | 45.77665 | 10.98453 | 19796 ft | 344 kts | 165° |
| 2026-04-30 18:41 | 45.75325 | 10.99196 | 19449 ft | 344 kts | 165° |
| 2026-04-30 18:41 | 45.72994 | 10.99934 | 19108 ft | 342 kts | 165° |
| 2026-04-30 18:41 | 45.70671 | 11.00670 | 18771 ft | 341 kts | 165° |
| 2026-04-30 18:41 | 45.68363 | 11.01400 | 18434 ft | 338 kts | 165° |
| 2026-04-30 18:42 | 45.66108 | 11.02287 | 18037 ft | 334 kts | 152° |
| 2026-04-30 18:42 | 45.62885 | 11.06620 | 17413 ft | 315 kts | 120° |
| 2026-04-30 18:42 | 45.61638 | 11.09173 | 17078 ft | 312 kts | 119° |
| 2026-04-30 18:45 | 45.50158 | 11.34396 | 13830 ft | 297 kts | 118° |
| 2026-04-30 18:45 | 45.49041 | 11.36862 | 13507 ft | 296 kts | 118° |
| 2026-04-30 18:45 | 45.47931 | 11.39316 | 13191 ft | 294 kts | 118° |
| 2026-04-30 18:46 | 45.47182 | 11.40968 | 12974 ft | 293 kts | 119° |
| 2026-04-30 18:46 | 45.46082 | 11.43396 | 12657 ft | 291 kts | 118° |
| 2026-04-30 18:46 | 45.44986 | 11.45811 | 12347 ft | 289 kts | 119° |
| 2026-04-30 18:46 | 45.43896 | 11.48212 | 12038 ft | 288 kts | 119° |
| 2026-04-30 18:47 | 45.42811 | 11.50601 | 11724 ft | 287 kts | 119° |
| 2026-04-30 18:47 | 45.41727 | 11.52979 | 11405 ft | 286 kts | 120° |
| 2026-04-30 18:47 | 45.40647 | 11.55348 | 11133 ft | 284 kts | 120° |
| 2026-04-30 18:47 | 45.39576 | 11.57696 | 10856 ft | 282 kts | 120° |
| 2026-04-30 18:48 | 45.38515 | 11.60020 | 10580 ft | 279 kts | 120° |
| 2026-04-30 18:48 | 45.37463 | 11.62325 | 10305 ft | 276 kts | 120° |
| 2026-04-30 18:48 | 45.36420 | 11.64605 | 10034 ft | 274 kts | 120° |
| 2026-04-30 18:48 | 45.35392 | 11.66851 | 9773 ft | 277 kts | 120° |
| 2026-04-30 18:49 | 45.34318 | 11.69197 | 9488 ft | 281 kts | 120° |
| 2026-04-30 18:49 | 45.33247 | 11.71535 | 9215 ft | 283 kts | 121° |
| 2026-04-30 18:49 | 45.32175 | 11.73872 | 8923 ft | 282 kts | 121° |
| 2026-04-30 18:49 | 45.31120 | 11.76170 | 8638 ft | 280 kts | 121° |
| 2026-04-30 18:50 | 45.30059 | 11.78479 | 8346 ft | 278 kts | 121° |
| 2026-04-30 18:50 | 45.29007 | 11.80766 | 8071 ft | 275 kts | 121° |
| 2026-04-30 18:50 | 45.27967 | 11.83028 | 7779 ft | 272 kts | 121° |
| 2026-04-30 18:50 | 45.26934 | 11.85267 | 7515 ft | 270 kts | 121° |
| 2026-04-30 18:51 | 45.25911 | 11.87481 | 7264 ft | 267 kts | 122° |
| 2026-04-30 18:51 | 45.24899 | 11.89676 | 6961 ft | 265 kts | 122° |
| 2026-04-30 18:51 | 45.23900 | 11.91846 | 6673 ft | 261 kts | 122° |
| 2026-04-30 18:51 | 45.22973 | 11.94044 | 6317 ft | 260 kts | 111° |
| 2026-04-30 18:52 | 45.22663 | 11.96559 | 5886 ft | 262 kts | 85° |
| 2026-04-30 18:52 | 45.23146 | 11.99026 | 5521 ft | 260 kts | 61° |
| 2026-04-30 18:52 | 45.24171 | 12.01119 | 5253 ft | 257 kts | 49° |
| 2026-04-30 18:52 | 45.25402 | 12.02914 | 5085 ft | 250 kts | 44° |
| 2026-04-30 18:53 | 45.26651 | 12.04580 | 4969 ft | 242 kts | 43° |
| 2026-04-30 18:53 | 45.27872 | 12.06159 | 4844 ft | 234 kts | 42° |
| 2026-04-30 18:53 | 45.29068 | 12.07693 | 4703 ft | 231 kts | 42° |
| 2026-04-30 18:53 | 45.30243 | 12.09198 | 4621 ft | 223 kts | 42° |
| 2026-04-30 18:54 | 45.31373 | 12.10646 | 4496 ft | 216 kts | 42° |
| 2026-04-30 18:54 | 45.32472 | 12.12052 | 4310 ft | 211 kts | 43° |
| 2026-04-30 18:54 | 45.33563 | 12.13445 | 4060 ft | 210 kts | 43° |
| 2026-04-30 18:54 | 45.34639 | 12.14823 | 3834 ft | 204 kts | 43° |
| 2026-04-30 18:55 | 45.35682 | 12.16159 | 3573 ft | 200 kts | 44° |
| 2026-04-30 18:55 | 45.37694 | 12.18737 | 3058 ft | 190 kts | 44° |
| 2026-04-30 18:55 | 45.38665 | 12.19980 | 2815 ft | 186 kts | 44° |
| 2026-04-30 18:56 | 45.40558 | 12.22406 | 2325 ft | 180 kts | 44° |
| 2026-04-30 18:56 | 45.41480 | 12.23588 | 2090 ft | 177 kts | 44° |
| 2026-04-30 18:56 | 45.42384 | 12.24748 | 1873 ft | 169 kts | 44° |
| 2026-04-30 18:57 | 45.43978 | 12.26794 | 1460 ft | 149 kts | 44° |
| 2026-04-30 18:57 | 45.44740 | 12.27794 | 1267 ft | 151 kts | 45° |
| 2026-04-30 18:57 | 45.45510 | 12.28815 | 1058 ft | 152 kts | 43° |
| 2026-04-30 18:58 | 45.47068 | 12.30793 | 642 ft | 149 kts | 43° |
| 2026-04-30 18:58 | 45.47846 | 12.31792 | 463 ft | 152 kts | 43° |
| 2026-04-30 18:58 | 45.48629 | 12.32776 | 292 ft | 148 kts | 43° |
| 2026-04-30 18:59 | 45.50121 | 12.34687 | 18 ft | 121 kts | 41° |
| 2026-04-30 19:00 | 45.50974 | 12.35354 | 20 ft | 19 kts | 271° |
| 2026-04-30 19:00 | 45.50930 | 12.35169 | 20 ft | 22 kts | 224° |
| 2026-04-30 19:00 | 45.50681 | 12.34852 | 19 ft | 23 kts | 222° |
| 2026-04-30 19:01 | 45.50465 | 12.34574 | 18 ft | 22 kts | 222° |
| 2026-04-30 19:01 | 45.50350 | 12.34430 | 20 ft | 22 kts | 221° |
| 2026-04-30 19:02 | 45.50189 | 12.34215 | 18 ft | 8 kts | 222° |
| 2026-04-30 19:02 | 45.50207 | 12.34115 | 18 ft | 3 kts | 312° |
| 2026-04-30 19:03 | 45.50209 | 12.34112 | 18 ft | 0 kts | 312° |